createdAt,value
2022-12-03T00:00:15.949Z,100395.13
2022-12-03T00:02:44.273Z,100398.75
2022-12-03T00:05:12.719Z,100396.16
2022-12-03T00:07:41.408Z,100394.84
2022-12-03T00:10:12.274Z,100392.78
2022-12-03T00:12:40.402Z,100405.13
2022-12-03T00:15:09.952Z,100407.44
2022-12-03T00:17:38.384Z,100409.00
2022-12-03T00:20:08.527Z,100404.91
2022-12-03T00:22:36.710Z,100413.28
2022-12-03T00:25:05.134Z,100407.44
2022-12-03T00:27:34.629Z,100421.97
2022-12-03T00:30:02.748Z,100419.38
2022-12-03T00:32:30.876Z,100420.50
2022-12-03T00:34:58.937Z,100423.19
2022-12-03T00:37:27.306Z,100427.28
2022-12-03T00:39:55.342Z,100421.50
2022-12-03T00:42:23.410Z,100427.09
2022-12-03T00:44:53.239Z,100424.59
2022-12-03T00:47:21.632Z,100430.06
2022-12-03T00:49:49.737Z,100419.78
2022-12-03T00:52:17.804Z,100429.66
2022-12-03T00:54:45.882Z,100430.84
2022-12-03T00:57:13.900Z,100436.06
2022-12-03T00:59:42.172Z,100429.66
2022-12-03T01:02:11.897Z,100439.84
2022-12-03T01:04:40.147Z,100436.94
2022-12-03T01:07:08.318Z,100439.44
2022-12-03T01:09:36.380Z,100442.22
2022-12-03T01:12:04.841Z,100438.25
2022-12-03T01:14:32.988Z,100440.22
2022-12-03T01:17:01.082Z,100445.53
2022-12-03T01:19:30.556Z,100446.22
2022-12-03T01:21:58.761Z,100451.09
2022-12-03T01:24:27.100Z,100454.13
2022-12-03T01:26:56.651Z,100453.72
2022-12-03T01:29:24.762Z,100454.31
2022-12-03T01:32:10.302Z,100454.91
2022-12-03T01:34:39.777Z,100446.84
2022-12-03T01:37:08.100Z,100446.84
2022-12-03T01:39:36.155Z,100451.63
2022-12-03T01:42:05.542Z,100455.25
2022-12-03T01:44:35.392Z,100455.00
2022-12-03T01:47:07.669Z,100460.72
2022-12-03T01:49:43.555Z,100461.59
2022-12-03T01:52:14.287Z,100459.81
2022-12-03T01:54:46.942Z,100470.56
2022-12-03T01:57:23.004Z,100467.28
2022-12-03T01:59:51.621Z,100477.06
2022-12-03T02:02:24.077Z,100470.78
2022-12-03T02:04:54.822Z,100470.47
2022-12-03T02:07:26.665Z,100476.78
2022-12-03T02:09:56.471Z,100476.38
2022-12-03T02:12:28.758Z,100475.16
2022-12-03T02:14:57.440Z,100479.25
2022-12-03T02:17:26.612Z,100470.69
2022-12-03T02:19:57.550Z,100462.31
2022-12-03T02:22:35.534Z,100469.78
2022-12-03T02:25:16.903Z,100473.25
2022-12-03T02:27:45.685Z,100475.56
2022-12-03T02:30:20.157Z,100485.94
2022-12-03T02:32:48.916Z,100482.25
2022-12-03T02:35:18.897Z,100486.53
2022-12-03T02:37:48.776Z,100481.94
2022-12-03T02:40:21.622Z,100473.38
2022-12-03T02:42:51.721Z,100478.97
2022-12-03T02:45:23.696Z,100478.19
2022-12-03T02:47:56.057Z,100480.03
2022-12-03T02:50:30.237Z,100483.66
2022-12-03T02:53:00.243Z,100487.84
2022-12-03T02:55:36.821Z,100489.63
2022-12-03T02:58:06.571Z,100484.84
2022-12-03T03:00:36.534Z,100468.38
2022-12-03T03:03:07.709Z,100471.97
2022-12-03T03:05:37.874Z,100468.19
2022-12-03T03:08:07.036Z,100477.94
2022-12-03T03:10:38.330Z,100468.69
2022-12-03T03:13:10.581Z,100466.78
2022-12-03T03:15:40.638Z,100460.91
2022-12-03T03:18:10.804Z,100471.91
2022-12-03T03:20:39.746Z,100472.50
2022-12-03T03:23:14.266Z,100481.50
2022-12-03T03:25:46.339Z,100482.47
2022-12-03T03:28:16.151Z,100476.56
2022-12-03T03:30:45.912Z,100482.25
2022-12-03T03:33:15.736Z,100484.34
2022-12-03T03:35:45.410Z,100484.56
2022-12-03T03:38:14.273Z,100485.25
2022-12-03T03:40:44.603Z,100478.41
2022-12-03T03:43:14.242Z,100479.84
2022-12-03T03:45:43.200Z,100490.00
2022-12-03T03:48:12.445Z,100496.69
2022-12-03T03:50:41.154Z,100496.69
2022-12-03T03:53:09.781Z,100501.28
2022-12-03T03:55:37.927Z,100499.31
2022-12-03T03:58:07.671Z,100504.69
2022-12-03T04:00:37.111Z,100502.19
2022-12-03T04:03:05.422Z,100509.19
2022-12-03T04:05:33.587Z,100503.13
2022-12-03T04:08:01.842Z,100509.50
2022-12-03T04:10:47.188Z,100513.06
2022-12-03T04:13:16.640Z,100514.69
2022-12-03T04:15:44.711Z,100508.41
2022-12-03T04:18:30.421Z,100513.06
2022-12-03T04:21:18.491Z,100513.56
2022-12-03T04:23:45.599Z,100516.97
2022-12-03T04:26:31.176Z,100520.34
2022-12-03T04:29:00.696Z,100521.28
2022-12-03T04:31:46.453Z,100524.06
2022-12-03T04:34:31.916Z,100529.03
2022-12-03T04:36:59.988Z,100523.38
2022-12-03T04:39:28.071Z,100524.25
2022-12-03T04:41:56.213Z,100535.22
2022-12-03T04:44:36.302Z,100537.72
2022-12-03T04:47:07.468Z,100535.91
2022-12-03T04:49:36.498Z,100530.72
2022-12-03T04:52:05.165Z,100531.34
2022-12-03T04:54:33.244Z,100519.03
2022-12-03T04:57:01.307Z,100524.53
2022-12-03T04:59:30.863Z,100531.09
2022-12-03T05:01:59.101Z,100523.84
2022-12-03T05:04:27.591Z,100524.75
2022-12-03T05:06:55.901Z,100526.66
2022-12-03T05:09:24.484Z,100524.75
2022-12-03T05:11:52.529Z,100523.97
2022-12-03T05:14:20.618Z,100527.91
2022-12-03T05:16:50.287Z,100538.13
2022-12-03T05:19:18.508Z,100542.81
2022-12-03T05:21:45.622Z,100547.09
2022-12-03T05:24:13.877Z,100545.09
2022-12-03T05:26:41.951Z,100552.06
2022-12-03T05:29:10.228Z,100556.75
2022-12-03T05:31:38.403Z,100560.81
2022-12-03T05:34:08.147Z,100559.16
2022-12-03T05:36:36.258Z,100552.53
2022-12-03T05:39:04.395Z,100556.03
2022-12-03T05:41:49.924Z,100566.78
2022-12-03T05:44:21.976Z,100567.91
2022-12-03T05:46:53.834Z,100567.44
2022-12-03T05:49:25.556Z,100562.72
2022-12-03T05:51:58.194Z,100565.28
2022-12-03T05:54:27.300Z,100562.91
2022-12-03T05:56:55.504Z,100562.44
2022-12-03T05:59:23.575Z,100566.41
2022-12-03T06:01:51.612Z,100567.97
2022-12-03T06:04:19.764Z,100567.75
2022-12-03T06:06:49.504Z,100576.69
2022-12-03T06:09:17.696Z,100581.44
2022-12-03T06:11:45.799Z,100589.44
2022-12-03T06:14:13.878Z,100586.66
2022-12-03T06:16:42.021Z,100589.56
2022-12-03T06:19:10.507Z,100587.25
2022-12-03T06:21:38.765Z,100589.97
2022-12-03T06:24:08.666Z,100596.84
2022-12-03T06:26:36.814Z,100597.03
2022-12-03T06:29:07.775Z,100593.28
2022-12-03T06:31:35.977Z,100598.94
2022-12-03T06:34:04.601Z,100605.91
2022-12-03T06:36:32.663Z,100608.03
2022-12-03T06:39:00.983Z,100607.66
2022-12-03T06:41:30.469Z,100601.94
2022-12-03T06:43:58.587Z,100606.78
2022-12-03T06:46:26.820Z,100604.28
2022-12-03T06:48:55.025Z,100607.16
2022-12-03T06:51:23.130Z,100610.53
2022-12-03T06:53:51.148Z,100620.09
2022-12-03T06:56:22.332Z,100610.34
2022-12-03T06:58:52.066Z,100610.28
2022-12-03T07:01:20.354Z,100621.66
2022-12-03T07:03:49.034Z,100619.44
2022-12-03T07:06:17.462Z,100613.78
2022-12-03T07:08:45.713Z,100618.16
2022-12-03T07:11:27.820Z,100621.88
2022-12-03T07:14:04.424Z,100618.38
2022-12-03T07:16:33.561Z,100619.09
2022-12-03T07:19:01.695Z,100616.91
2022-12-03T07:21:30.546Z,100614.47
2022-12-03T07:23:58.763Z,100611.09
2022-12-03T07:26:26.766Z,100620.88
2022-12-03T07:28:54.933Z,100622.31
2022-12-03T07:31:24.982Z,100620.09
2022-12-03T07:33:53.176Z,100627.47
2022-12-03T07:36:21.320Z,100625.97
2022-12-03T07:38:49.824Z,100624.88
2022-12-03T07:41:17.922Z,100632.50
2022-12-03T07:43:49.035Z,100628.25
2022-12-03T07:46:17.227Z,100624.38
2022-12-03T07:48:46.866Z,100628.25
2022-12-03T07:51:15.617Z,100627.94
2022-12-03T07:53:43.955Z,100637.53
2022-12-03T07:56:30.865Z,100634.94
2022-12-03T07:58:58.982Z,100636.94
2022-12-03T08:01:27.377Z,100629.28
2022-12-03T08:03:56.847Z,100628.66
2022-12-03T08:06:24.891Z,100629.97
2022-12-03T08:08:52.966Z,100633.53
2022-12-03T08:11:21.057Z,100629.44
2022-12-03T08:13:49.241Z,100635.97
2022-12-03T08:16:19.432Z,100633.00
2022-12-03T08:18:49.160Z,100631.16
2022-12-03T08:21:20.586Z,100631.19
2022-12-03T08:23:49.022Z,100638.78
2022-12-03T08:26:22.927Z,100640.75
2022-12-03T08:28:51.018Z,100638.13
2022-12-03T08:31:21.118Z,100632.66
2022-12-03T08:33:51.151Z,100624.97
2022-12-03T08:36:24.140Z,100626.06
2022-12-03T08:38:53.921Z,100636.19
2022-12-03T08:41:36.469Z,100639.34
2022-12-03T08:44:16.941Z,100644.00
2022-12-03T08:46:45.575Z,100646.97
2022-12-03T08:49:15.021Z,100648.66
2022-12-03T08:51:45.210Z,100649.06
2022-12-03T08:54:16.164Z,100638.75
2022-12-03T08:56:45.045Z,100632.81
2022-12-03T08:59:26.836Z,100633.25
2022-12-03T09:01:55.311Z,100627.66
2022-12-03T09:04:27.719Z,100626.59
2022-12-03T09:06:57.711Z,100621.03
2022-12-03T09:09:25.858Z,100627.84
2022-12-03T09:11:55.187Z,100627.03
2022-12-03T09:14:25.328Z,100621.44
2022-12-03T09:16:56.100Z,100616.75
2022-12-03T09:19:25.485Z,100621.84
2022-12-03T09:21:54.102Z,100618.53
2022-12-03T09:24:24.667Z,100616.44
2022-12-03T09:26:52.869Z,100622.22
2022-12-03T09:29:21.764Z,100615.50
2022-12-03T09:31:50.121Z,100610.44
2022-12-03T09:34:18.623Z,100612.03
2022-12-03T09:36:46.867Z,100613.47
2022-12-03T09:39:15.177Z,100604.91
2022-12-03T09:41:45.799Z,100607.97
2022-12-03T09:44:17.822Z,100598.41
2022-12-03T09:46:47.679Z,100598.28
2022-12-03T09:49:17.909Z,100596.69
2022-12-03T09:51:47.040Z,100602.91
2022-12-03T09:54:24.275Z,100603.94
2022-12-03T09:56:55.011Z,100601.59
2022-12-03T09:59:26.577Z,100599.16
2022-12-03T10:01:55.704Z,100596.78
2022-12-03T10:04:24.550Z,100600.72
2022-12-03T10:06:52.853Z,100600.94
2022-12-03T10:09:26.355Z,100603.00
2022-12-03T10:11:56.682Z,100599.19
2022-12-03T10:14:25.286Z,100603.34
2022-12-03T10:16:53.505Z,100597.81
2022-12-03T10:19:25.731Z,100598.28
2022-12-03T10:21:53.933Z,100587.91
2022-12-03T10:24:25.820Z,100579.47
2022-12-03T10:26:57.891Z,100576.78
2022-12-03T10:29:33.317Z,100577.78
2022-12-03T10:32:03.886Z,100579.53
2022-12-03T10:34:34.376Z,100576.16
2022-12-03T10:37:14.969Z,100575.84
2022-12-03T10:40:01.596Z,100569.28
2022-12-03T10:42:33.505Z,100573.34
2022-12-03T10:45:18.085Z,100573.94
2022-12-03T10:48:04.514Z,100576.38
2022-12-03T10:50:33.868Z,100575.00
2022-12-03T10:53:02.449Z,100577.16
2022-12-03T10:55:34.870Z,100569.22
2022-12-03T10:58:04.506Z,100566.38
2022-12-03T11:00:32.675Z,100575.16
2022-12-03T11:03:00.796Z,100571.22
2022-12-03T11:05:29.632Z,100572.72
2022-12-03T11:07:58.171Z,100570.69
2022-12-03T11:10:26.705Z,100577.34
2022-12-03T11:13:43.592Z,100574.31
2022-12-03T11:16:12.120Z,100574.97
2022-12-03T11:19:00.296Z,100568.69
2022-12-03T11:21:28.521Z,100574.19
2022-12-03T11:24:05.055Z,100563.63
2022-12-03T11:27:08.594Z,100567.38
2022-12-03T11:29:59.520Z,100565.00
2022-12-03T11:33:17.110Z,100564.66
2022-12-03T11:36:31.599Z,100567.09
2022-12-03T11:39:04.782Z,100572.41
2022-12-03T11:41:34.921Z,100571.66
2022-12-03T11:44:22.139Z,100566.09
2022-12-03T11:46:51.858Z,100561.00
2022-12-03T11:49:33.272Z,100567.53
2022-12-03T11:52:05.580Z,100561.97
2022-12-03T11:54:36.450Z,100562.81
2022-12-03T11:57:04.851Z,100559.22
2022-12-03T11:59:33.098Z,100566.19
2022-12-03T12:02:02.657Z,100567.53
2022-12-03T12:04:35.162Z,100565.41
2022-12-03T12:07:03.618Z,100556.53
2022-12-03T12:09:55.049Z,100553.84
2022-12-03T12:12:30.957Z,100558.25
2022-12-03T12:15:01.303Z,100555.06
2022-12-03T12:17:35.788Z,100557.19
2022-12-03T12:36:37.548Z,100546.84
2022-12-03T12:39:12.267Z,100556.91
2022-12-03T12:41:42.193Z,100556.13
2022-12-03T12:44:11.281Z,100552.72
2022-12-03T12:46:47.806Z,100553.97
2022-12-03T12:49:20.583Z,100559.50
2022-12-03T12:51:50.795Z,100552.38
2022-12-03T12:54:19.720Z,100550.47
2022-12-03T12:56:50.240Z,100565.88
2022-12-03T12:59:20.138Z,100563.06
2022-12-03T13:01:50.251Z,100562.66
2022-12-03T13:04:21.502Z,100556.72
2022-12-03T13:06:54.314Z,100567.28
2022-12-03T13:09:24.607Z,100567.16
2022-12-03T13:11:55.178Z,100562.97
2022-12-03T13:14:24.778Z,100562.28
2022-12-03T13:16:54.891Z,100566.75
2022-12-03T13:19:25.295Z,100563.03
2022-12-03T13:21:56.460Z,100561.56
2022-12-03T13:24:34.742Z,100567.19
2022-12-03T13:27:21.750Z,100571.66
2022-12-03T13:29:52.634Z,100570.31
2022-12-03T13:32:23.249Z,100574.53
2022-12-03T13:34:51.604Z,100567.06
2022-12-03T13:37:24.000Z,100556.34
2022-12-03T13:39:54.151Z,100572.66
2022-12-03T13:42:42.786Z,100561.94
2022-12-03T13:45:31.812Z,100558.47
2022-12-03T13:48:01.960Z,100560.81
2022-12-03T13:50:37.727Z,100559.31
2022-12-03T13:53:21.358Z,100557.19
2022-12-03T13:55:51.415Z,100565.06
2022-12-03T13:58:19.563Z,100553.34
2022-12-03T14:00:47.895Z,100563.63
2022-12-03T14:03:16.080Z,100564.56
2022-12-03T14:05:44.210Z,100559.75
2022-12-03T14:08:14.080Z,100564.13
2022-12-03T14:10:42.450Z,100559.03
2022-12-03T14:13:10.474Z,100564.38
2022-12-03T14:15:38.700Z,100578.69
2022-12-03T14:18:06.925Z,100580.41
2022-12-03T14:20:36.564Z,100577.88
2022-12-03T14:23:04.747Z,100577.19
2022-12-03T14:25:34.452Z,100577.66
2022-12-03T14:28:02.479Z,100580.81
2022-12-03T14:30:30.578Z,100582.34
2022-12-03T14:32:58.761Z,100582.03
2022-12-03T14:35:26.890Z,100583.22
2022-12-03T14:37:55.060Z,100588.97
2022-12-03T14:40:23.417Z,100584.06
2022-12-03T14:42:52.838Z,100590.16
2022-12-03T14:45:23.193Z,100588.22
2022-12-03T14:47:51.429Z,100588.59
2022-12-03T14:50:19.479Z,100592.56
2022-12-03T14:52:47.701Z,100598.28
2022-12-03T14:55:15.988Z,100593.53
2022-12-03T14:57:44.237Z,100597.25
2022-12-03T15:00:15.242Z,100594.81
2022-12-03T15:02:43.749Z,100599.22
2022-12-03T15:05:11.982Z,100597.06
2022-12-03T15:07:40.634Z,100599.19
2022-12-03T15:10:09.832Z,100600.38
2022-12-03T15:12:37.889Z,100605.00
2022-12-03T15:15:06.702Z,100593.28
2022-12-03T15:17:36.210Z,100590.94
2022-12-03T15:20:05.173Z,100598.69
2022-12-03T15:22:33.269Z,100592.78
2022-12-03T15:25:02.595Z,100592.28
2022-12-03T15:27:30.717Z,100593.16
2022-12-03T15:29:58.899Z,100591.50
2022-12-03T15:32:27.003Z,100600.88
2022-12-03T15:34:56.793Z,100603.47
2022-12-03T15:37:27.677Z,100607.47
2022-12-03T15:39:55.922Z,100616.41
2022-12-03T15:42:24.515Z,100617.94
2022-12-03T15:44:52.605Z,100609.50
2022-12-03T15:47:20.784Z,100619.25
2022-12-03T15:49:49.032Z,100622.63
2022-12-03T15:52:18.829Z,100621.81
2022-12-03T15:54:47.020Z,100623.47
2022-12-03T15:57:15.177Z,100625.31
2022-12-03T15:59:43.835Z,100628.47
2022-12-03T16:02:12.535Z,100628.47
2022-12-03T16:04:41.105Z,100635.03
2022-12-03T16:07:09.479Z,100636.06
2022-12-03T16:09:38.998Z,100628.13
2022-12-03T16:12:07.344Z,100643.25
2022-12-03T16:14:35.438Z,100637.66
2022-12-03T16:17:03.517Z,100643.75
2022-12-03T16:19:31.614Z,100637.84
2022-12-03T16:21:59.831Z,100644.56
2022-12-03T16:24:27.910Z,100658.06
2022-12-03T16:27:00.132Z,100649.63
2022-12-03T16:29:28.329Z,100656.75
2022-12-03T16:31:56.500Z,100648.66
2022-12-03T16:34:24.664Z,100656.50
2022-12-03T16:36:53.013Z,100647.59
2022-12-03T16:39:21.073Z,100651.41
2022-12-03T16:41:49.228Z,100653.50
2022-12-03T16:44:32.134Z,100662.28
2022-12-03T16:47:01.633Z,100654.34
2022-12-03T16:49:29.916Z,100661.66
2022-12-03T16:51:57.907Z,100655.41
2022-12-03T16:54:26.158Z,100663.28
2022-12-03T16:56:54.271Z,100659.81
2022-12-03T16:59:23.866Z,100663.13
2022-12-03T17:01:52.111Z,100664.16
2022-12-03T17:04:20.323Z,100670.94
2022-12-03T17:06:48.384Z,100667.59
2022-12-03T17:09:16.517Z,100672.22
2022-12-03T17:11:44.615Z,100677.00
2022-12-03T17:14:12.928Z,100678.59
2022-12-03T17:16:42.446Z,100677.53
2022-12-03T17:19:10.601Z,100682.41
2022-12-03T17:21:38.678Z,100684.72
2022-12-03T17:24:07.341Z,100681.88
2022-12-03T17:26:35.391Z,100692.63
2022-12-03T17:29:03.430Z,100682.63
2022-12-03T17:31:34.647Z,100691.84
2022-12-03T17:34:06.637Z,100685.91
2022-12-03T17:36:34.765Z,100693.50
2022-12-03T17:39:02.821Z,100688.63
2022-12-03T17:41:30.941Z,100703.72
2022-12-03T17:43:58.999Z,100695.72
2022-12-03T17:46:27.188Z,100697.84
2022-12-03T17:48:55.351Z,100701.75
2022-12-03T17:51:25.119Z,100701.03
2022-12-03T17:53:53.249Z,100695.34
2022-12-03T17:56:22.052Z,100700.16
2022-12-03T17:58:50.144Z,100706.66
2022-12-03T18:01:18.333Z,100711.16
2022-12-03T18:03:46.535Z,100712.06
2022-12-03T18:06:14.702Z,100718.03
2022-12-03T18:08:44.311Z,100715.94
2022-12-03T18:11:12.524Z,100720.75
2022-12-03T18:13:40.612Z,100719.34
2022-12-03T18:16:09.335Z,100720.19
2022-12-03T18:18:38.051Z,100716.66
2022-12-03T18:21:06.460Z,100724.56
2022-12-03T18:23:35.467Z,100720.66
2022-12-03T18:26:05.932Z,100722.88
2022-12-03T18:28:34.183Z,100718.28
2022-12-03T18:31:02.339Z,100718.19
2022-12-03T18:33:30.547Z,100724.06
2022-12-03T18:35:59.400Z,100721.59
2022-12-03T18:38:34.422Z,100720.97
2022-12-03T18:41:02.492Z,100728.38
2022-12-03T18:43:31.990Z,100722.88
2022-12-03T18:46:00.164Z,100728.38
2022-12-03T18:48:28.313Z,100723.97
2022-12-03T18:50:56.624Z,100720.06
2022-12-03T18:53:25.137Z,100719.69
2022-12-03T18:55:53.255Z,100722.38
2022-12-03T18:58:21.327Z,100715.41
2022-12-03T19:00:50.787Z,100717.97
2022-12-03T19:03:19.034Z,100720.19
2022-12-03T19:05:47.303Z,100724.19
2022-12-03T19:08:15.543Z,100726.06
2022-12-03T19:10:44.369Z,100721.56
2022-12-03T19:13:13.453Z,100722.19
2022-12-03T19:15:41.824Z,100723.25
2022-12-03T19:18:11.271Z,100723.25
2022-12-03T19:20:42.047Z,100725.75
2022-12-03T19:23:10.577Z,100724.16
2022-12-03T19:25:38.783Z,100727.66
2022-12-03T19:28:06.877Z,100728.75
2022-12-03T19:30:35.053Z,100729.75
2022-12-03T19:33:03.178Z,100730.56
2022-12-03T19:35:32.820Z,100735.03
2022-12-03T19:38:00.921Z,100733.94
2022-12-03T19:40:29.087Z,100735.75
2022-12-03T19:42:57.196Z,100737.78
2022-12-03T19:45:25.449Z,100745.75
2022-12-03T19:47:53.921Z,100741.56
2022-12-03T19:50:23.482Z,100741.97
2022-12-03T19:52:53.273Z,100737.78
2022-12-03T19:55:21.474Z,100749.34
2022-12-03T19:57:50.072Z,100746.47
2022-12-03T20:00:18.510Z,100747.97
2022-12-03T20:02:49.904Z,100747.56
2022-12-03T20:05:18.326Z,100747.25
2022-12-03T20:07:46.496Z,100739.56
2022-12-03T20:10:16.112Z,100751.56
2022-12-03T20:12:44.296Z,100747.16
2022-12-03T20:15:13.761Z,100746.84
2022-12-03T20:17:41.961Z,100743.75
2022-12-03T20:20:10.995Z,100755.44
2022-12-03T20:22:39.214Z,100749.16
2022-12-03T20:25:08.167Z,100750.94
2022-12-03T20:27:37.825Z,100751.63
2022-12-03T20:30:07.126Z,100751.25
2022-12-03T20:32:40.541Z,100754.13
2022-12-03T20:35:11.997Z,100756.22
2022-12-03T20:37:40.723Z,100752.16
2022-12-03T20:40:10.025Z,100751.56
2022-12-03T20:42:39.617Z,100749.88
2022-12-03T20:45:08.931Z,100759.03
2022-12-03T20:47:37.010Z,100753.16
2022-12-03T20:50:09.717Z,100759.34
2022-12-03T20:52:38.006Z,100755.66
2022-12-03T20:55:06.631Z,100757.75
2022-12-03T20:57:34.899Z,100757.75
2022-12-03T21:00:05.442Z,100758.25
2022-12-03T21:02:33.558Z,100758.75
2022-12-03T21:05:01.826Z,100757.03
2022-12-03T21:07:30.029Z,100752.56
2022-12-03T21:09:58.342Z,100755.13
2022-12-03T21:12:26.555Z,100754.75
2022-12-03T21:14:54.762Z,100759.13
2022-12-03T21:17:24.257Z,100755.63
2022-12-03T21:19:52.833Z,100762.44
2022-12-03T21:22:21.350Z,100762.31
2022-12-03T21:24:49.504Z,100768.53
2022-12-03T21:27:21.588Z,100763.81
2022-12-03T21:29:50.305Z,100760.31
2022-12-03T21:32:18.580Z,100760.53
2022-12-03T21:34:48.142Z,100766.22
2022-12-03T21:37:16.141Z,100757.13
2022-12-03T21:39:44.389Z,100756.31
2022-12-03T21:42:36.241Z,100755.50
2022-12-03T21:45:00.611Z,100745.88
2022-12-03T21:47:33.465Z,100755.47
2022-12-03T21:50:08.161Z,100754.88
2022-12-03T21:52:36.629Z,100752.78
2022-12-03T21:55:05.335Z,100746.28
2022-12-03T21:57:36.184Z,100749.88
2022-12-03T22:00:05.847Z,100734.22
2022-12-03T22:02:34.494Z,100744.88
2022-12-03T22:05:03.067Z,100742.00
2022-12-03T22:07:34.068Z,100748.09
2022-12-03T22:10:02.127Z,100738.94
2022-12-03T22:12:30.306Z,100731.03
2022-12-03T22:14:58.460Z,100738.53
2022-12-03T22:17:26.941Z,100739.03
2022-12-03T22:19:55.512Z,100736.63
2022-12-03T22:22:23.673Z,100749.31
2022-12-03T22:24:53.157Z,100746.31
2022-12-03T22:27:21.207Z,100744.31
2022-12-03T22:29:49.362Z,100755.44
2022-12-03T22:32:17.448Z,100747.94
2022-12-03T22:34:45.662Z,100735.97
2022-12-03T22:37:13.895Z,100737.16
2022-12-03T22:39:42.075Z,100730.88
2022-12-03T22:42:11.712Z,100733.09
2022-12-03T22:44:39.690Z,100729.28
2022-12-03T22:47:07.850Z,100731.53
2022-12-03T22:49:36.041Z,100735.13
2022-12-03T22:52:04.143Z,100734.97
2022-12-03T22:54:32.214Z,100730.72
2022-12-03T22:57:00.326Z,100726.25
2022-12-03T22:59:29.801Z,100734.09
2022-12-03T23:01:57.796Z,100734.81
2022-12-03T23:04:25.913Z,100731.25
2022-12-03T23:06:53.987Z,100734.56
2022-12-03T23:09:22.179Z,100725.16
2022-12-03T23:11:50.335Z,100723.97
2022-12-03T23:14:18.405Z,100725.34
2022-12-03T23:16:47.855Z,100722.88
2022-12-03T23:19:15.960Z,100723.66
2022-12-03T23:21:44.083Z,100731.13
2022-12-03T23:24:12.180Z,100724.22
2022-12-03T23:26:40.378Z,100727.28
2022-12-03T23:29:08.733Z,100719.81
2022-12-03T23:31:37.015Z,100719.41
2022-12-03T23:34:07.372Z,100722.19
2022-12-03T23:36:36.096Z,100728.41
2022-12-03T23:39:04.277Z,100728.28
2022-12-03T23:41:32.414Z,100733.19
2022-12-03T23:44:00.487Z,100726.41
2022-12-03T23:46:28.888Z,100722.88
2022-12-03T23:48:58.820Z,100716.31
2022-12-03T23:51:28.782Z,100722.50
2022-12-03T23:53:57.318Z,100723.25
2022-12-03T23:56:29.242Z,100734.63
2022-12-03T23:58:59.662Z,100724.03
